Time,TemperatureF,DewpointF,PressureIn,WindDirection,WindDirectionDegrees,WindSpeedMPH,WindSpeedGustMPH,Humidity,HourlyPrecipIn,Conditions,Clouds,dailyrainin,SoftwareType,DateUTC
2013-04-23 00:01:00,54.0,47.0,29.81,SSE,147,0.0,0.0,77,0.00,,,0.00,,2013-04-23 07:01:00,
2013-04-23 00:11:00,54.0,47.0,29.81,SSE,147,0.0,0.0,77,0.00,,,0.00,,2013-04-23 07:11:00,
2013-04-23 00:21:00,53.0,47.0,29.81,SSE,147,0.0,0.0,79,0.00,,,0.00,,2013-04-23 07:21:00,
2013-04-23 00:32:00,53.0,47.0,29.81,SSE,147,0.0,0.0,79,0.00,,,0.00,,2013-04-23 07:32:00,
2013-04-23 00:41:00,53.0,47.0,29.81,SSE,147,0.0,0.0,79,0.00,,,0.00,,2013-04-23 07:41:00,
2013-04-23 00:52:00,52.0,46.0,29.81,SSE,147,0.0,0.0,81,0.00,,,0.00,,2013-04-23 07:52:00,
2013-04-23 01:01:00,52.0,47.0,29.81,SSE,147,0.0,0.0,82,0.00,,,0.00,,2013-04-23 08:01:00,
2013-04-23 01:11:00,52.0,47.0,29.81,SSE,147,0.0,0.0,82,0.00,,,0.00,,2013-04-23 08:11:00,
2013-04-23 01:21:00,52.0,47.0,29.81,SSE,147,0.0,0.0,82,0.00,,,0.00,,2013-04-23 08:21:00,
2013-04-23 01:31:00,50.0,45.0,29.81,SSE,147,0.0,0.0,83,0.00,,,0.00,,2013-04-23 08:31:00,
2013-04-23 01:42:00,50.0,45.0,29.81,SSE,147,0.0,0.0,83,0.00,,,0.00,,2013-04-23 08:42:00,
2013-04-23 01:52:00,50.0,45.0,29.81,SSE,147,0.0,0.0,83,0.00,,,0.00,,2013-04-23 08:52:00,
2013-04-23 02:01:00,50.0,45.0,29.81,SSE,147,0.0,0.0,83,0.00,,,0.00,,2013-04-23 09:01:00,
2013-04-23 02:11:00,50.0,45.0,29.81,SSE,147,0.0,0.0,83,0.00,,,0.00,,2013-04-23 09:11:00,
2013-04-23 02:21:00,50.0,45.0,29.81,SSE,147,0.0,0.0,83,0.00,,,0.00,,2013-04-23 09:21:00,
2013-04-23 02:32:00,48.0,44.0,29.81,SSE,147,0.0,0.0,85,0.00,,,0.00,,2013-04-23 09:32:00,
2013-04-23 03:02:00,47.0,43.0,29.81,SSE,147,0.0,0.0,85,0.00,,,0.00,,2013-04-23 10:02:00,
2013-04-23 03:22:00,47.0,43.0,29.80,SSE,147,0.0,0.0,85,0.00,,,0.00,,2013-04-23 10:22:00,
2013-04-23 03:32:00,47.0,43.0,29.80,SSE,147,0.0,0.0,85,0.00,,,0.00,,2013-04-23 10:32:00,
2013-04-23 04:02:00,46.0,42.0,29.81,SSE,149,0.0,1.0,86,0.00,,,0.00,,2013-04-23 11:02:00,
2013-04-23 04:32:00,46.0,42.0,29.81,SSE,149,0.0,0.0,86,0.00,,,0.00,,2013-04-23 11:32:00,
2013-04-23 04:42:00,46.0,41.0,29.81,WSW,239,0.0,3.0,84,0.00,,,0.00,,2013-04-23 11:42:00,
2013-04-23 04:52:00,46.0,41.0,29.81,WSW,239,0.0,3.0,84,0.00,,,0.00,,2013-04-23 11:52:00,
2013-04-23 05:02:00,52.0,36.0,29.81,NNE,21,0.0,1.0,54,0.00,,,0.00,,2013-04-23 12:02:00,
2013-04-23 05:10:00,55.0,32.0,29.81,NNW,328,2.0,6.0,41,0.00,,,0.00,,2013-04-23 12:10:00,
2013-04-23 05:32:00,55.0,32.0,29.81,NNW,328,2.0,6.0,41,0.00,,,0.00,,2013-04-23 12:32:00,
2013-04-23 05:41:00,55.0,32.0,29.81,NNW,328,2.0,6.0,41,0.00,,,0.00,,2013-04-23 12:41:00,
2013-04-23 05:51:00,55.0,32.0,29.81,NNW,328,2.0,6.0,41,0.00,,,0.00,,2013-04-23 12:51:00,
2013-04-23 06:01:00,55.0,32.0,29.81,NNW,328,2.0,6.0,41,0.00,,,0.00,,2013-04-23 13:01:00,
2013-04-23 06:22:00,62.0,28.0,29.81,North,358,0.0,2.0,27,0.00,,,0.00,,2013-04-23 13:22:00,
2013-04-23 06:32:00,60.0,22.0,29.82,NW,313,2.0,12.0,23,0.00,,,0.00,,2013-04-23 13:32:00,
2013-04-23 06:42:00,60.0,22.0,29.82,NW,313,2.0,12.0,23,0.00,,,0.00,,2013-04-23 13:42:00,
2013-04-23 06:52:00,61.0,24.0,29.82,NNW,344,0.0,4.0,24,0.00,,,0.00,,2013-04-23 13:52:00,
2013-04-23 07:01:00,62.0,22.0,29.83,NNW,342,2.0,9.0,21,0.00,,,0.00,,2013-04-23 14:01:00,
2013-04-23 07:11:00,62.0,22.0,29.83,NNW,342,2.0,9.0,21,0.00,,,0.00,,2013-04-23 14:11:00,
2013-04-23 07:22:00,62.0,22.0,29.83,NNW,342,2.0,9.0,21,0.00,,,0.00,,2013-04-23 14:22:00,
2013-04-23 07:31:00,61.0,27.0,29.83,NNW,332,0.0,2.0,27,0.00,,,0.00,,2013-04-23 14:31:00,
2013-04-23 07:41:00,61.0,27.0,29.83,NNW,332,0.0,2.0,27,0.00,,,0.00,,2013-04-23 14:41:00,
2013-04-23 07:51:00,58.0,31.0,29.83,NNW,331,0.0,1.0,35,0.00,,,0.00,,2013-04-23 14:51:00,
2013-04-23 08:01:00,58.0,31.0,29.83,NNW,331,0.0,1.0,35,0.00,,,0.00,,2013-04-23 15:01:00,
2013-04-23 08:11:00,56.0,34.0,29.84,NNW,332,0.0,0.0,43,0.00,,,0.00,,2013-04-23 15:11:00,
2013-04-23 08:21:00,55.0,35.0,29.84,NNW,332,0.0,3.0,47,0.00,,,0.00,,2013-04-23 15:21:00,
2013-04-23 08:32:00,55.0,35.0,29.84,NNW,332,0.0,3.0,47,0.00,,,0.00,,2013-04-23 15:32:00,
2013-04-23 08:42:00,55.0,35.0,29.84,NNW,332,0.0,3.0,47,0.00,,,0.00,,2013-04-23 15:42:00,
2013-04-23 08:52:00,57.0,39.0,29.84,NNW,332,0.0,1.0,50,0.00,,,0.00,,2013-04-23 15:52:00,
2013-04-23 09:02:00,58.0,33.0,29.85,NNW,346,0.0,2.0,39,0.00,,,0.00,,2013-04-23 16:02:00,
2013-04-23 09:12:00,58.0,33.0,29.85,NNW,346,0.0,2.0,39,0.00,,,0.00,,2013-04-23 16:12:00,
2013-04-23 09:23:00,62.0,28.0,29.85,NNW,329,0.0,3.0,27,0.00,,,0.00,,2013-04-23 16:23:00,
2013-04-23 09:33:00,62.0,28.0,29.85,NNW,329,0.0,3.0,27,0.00,,,0.00,,2013-04-23 16:33:00,
2013-04-23 09:42:00,62.0,28.0,29.85,NNW,329,0.0,3.0,27,0.00,,,0.00,,2013-04-23 16:42:00,
2013-04-23 09:52:00,68.0,30.0,29.85,NW,321,1.0,4.0,24,0.00,,,0.00,,2013-04-23 16:52:00,
2013-04-23 10:02:00,73.0,31.0,29.84,NNW,338,0.0,3.0,21,0.00,,,0.00,,2013-04-23 17:02:00,
2013-04-23 10:11:00,73.0,31.0,29.84,NNW,338,0.0,3.0,21,0.00,,,0.00,,2013-04-23 17:11:00,
2013-04-23 10:22:00,73.0,31.0,29.84,NNW,338,0.0,3.0,21,0.00,,,0.00,,2013-04-23 17:22:00,
2013-04-23 10:32:00,74.0,29.0,29.85,NW,323,2.0,10.0,19,0.00,,,0.00,,2013-04-23 17:32:00,
2013-04-23 10:42:00,74.0,29.0,29.85,NW,323,2.0,10.0,19,0.00,,,0.00,,2013-04-23 17:42:00,
2013-04-23 10:53:00,74.0,30.0,29.85,NW,326,1.0,5.0,20,0.00,,,0.00,,2013-04-23 17:53:00,
2013-04-23 11:02:00,76.0,33.0,29.85,WNW,302,1.0,5.0,21,0.00,,,0.00,,2013-04-23 18:02:00,
2013-04-23 11:12:00,76.0,33.0,29.85,WNW,302,1.0,5.0,21,0.00,,,0.00,,2013-04-23 18:12:00,
2013-04-23 11:22:00,76.0,33.0,29.85,WNW,302,1.0,5.0,21,0.00,,,0.00,,2013-04-23 18:22:00,
2013-04-23 11:31:00,80.0,37.0,29.86,WSW,247,0.0,2.0,21,0.00,,,0.00,,2013-04-23 18:31:00,
2013-04-23 11:42:00,80.0,37.0,29.86,WSW,247,0.0,2.0,21,0.00,,,0.00,,2013-04-23 18:42:00,
2013-04-23 11:52:00,80.0,35.0,29.86,NW,305,0.0,4.0,20,0.00,,,0.00,,2013-04-23 18:52:00,
2013-04-23 12:02:00,80.0,37.0,29.86,North,358,0.0,4.0,21,0.00,,,0.00,,2013-04-23 19:02:00,
2013-04-23 12:11:00,80.0,37.0,29.86,North,358,0.0,4.0,21,0.00,,,0.00,,2013-04-23 19:11:00,
2013-04-23 12:21:00,80.0,31.0,29.86,WNW,288,0.0,3.0,17,0.00,,,0.00,,2013-04-23 19:21:00,
2013-04-23 12:32:00,82.0,31.0,29.85,NW,304,2.0,5.0,16,0.00,,,0.00,,2013-04-23 19:32:00,
2013-04-23 12:42:00,82.0,31.0,29.85,NW,304,2.0,5.0,16,0.00,,,0.00,,2013-04-23 19:42:00,
2013-04-23 12:52:00,82.0,31.0,29.85,NW,304,2.0,5.0,16,0.00,,,0.00,,2013-04-23 19:52:00,
2013-04-23 13:01:00,82.0,47.0,29.85,SSE,162,2.0,7.0,29,0.00,,,0.00,,2013-04-23 20:01:00,
2013-04-23 13:11:00,82.0,47.0,29.85,SSE,162,2.0,7.0,29,0.00,,,0.00,,2013-04-23 20:11:00,
2013-04-23 13:21:00,82.0,47.0,29.85,SSE,162,2.0,7.0,29,0.00,,,0.00,,2013-04-23 20:21:00,
2013-04-23 13:31:00,81.0,48.0,29.85,SE,125,2.0,4.0,32,0.00,,,0.00,,2013-04-23 20:31:00,
2013-04-23 13:41:00,81.0,48.0,29.85,SE,125,2.0,4.0,32,0.00,,,0.00,,2013-04-23 20:41:00,
2013-04-23 13:51:00,81.0,48.0,29.85,SE,125,2.0,4.0,32,0.00,,,0.00,,2013-04-23 20:51:00,
2013-04-23 14:01:00,80.0,46.0,29.85,SSE,160,3.0,10.0,30,0.00,,,0.00,,2013-04-23 21:01:00,
2013-04-23 14:11:00,80.0,46.0,29.85,SSE,160,3.0,10.0,30,0.00,,,0.00,,2013-04-23 21:11:00,
2013-04-23 14:21:00,79.0,47.0,29.84,SE,124,1.0,7.0,32,0.00,,,0.00,,2013-04-23 21:21:00,
2013-04-23 14:32:00,80.0,43.0,29.84,South,189,0.0,7.0,27,0.00,,,0.00,,2013-04-23 21:32:00,
2013-04-23 14:43:00,80.0,43.0,29.84,South,189,0.0,7.0,27,0.00,,,0.00,,2013-04-23 21:43:00,
2013-04-23 14:52:00,80.0,43.0,29.84,South,189,0.0,7.0,27,0.00,,,0.00,,2013-04-23 21:52:00,
2013-04-23 15:02:00,80.0,43.0,29.84,South,189,0.0,7.0,27,0.00,,,0.00,,2013-04-23 22:02:00,
2013-04-23 15:12:00,80.0,43.0,29.84,South,189,0.0,7.0,27,0.00,,,0.00,,2013-04-23 22:12:00,
2013-04-23 15:22:00,80.0,41.0,29.83,SSE,148,2.0,7.0,25,0.00,,,0.00,,2013-04-23 22:22:00,
2013-04-23 15:33:00,80.0,41.0,29.83,SSE,148,2.0,7.0,25,0.00,,,0.00,,2013-04-23 22:33:00,
2013-04-23 15:52:00,79.0,41.0,29.83,SSE,152,2.0,7.0,26,0.00,,,0.00,,2013-04-23 22:52:00,
2013-04-23 16:02:00,80.0,42.0,29.84,South,180,0.0,6.0,26,0.00,,,0.00,,2013-04-23 23:02:00,
2013-04-23 16:31:00,77.0,40.0,29.82,South,178,2.0,8.0,27,0.00,,,0.00,,2013-04-23 23:31:00,
2013-04-23 16:41:00,77.0,40.0,29.82,South,178,2.0,8.0,27,0.00,,,0.00,,2013-04-23 23:41:00,
2013-04-23 16:52:00,77.0,40.0,29.82,South,178,2.0,8.0,27,0.00,,,0.00,,2013-04-23 23:52:00,
2013-04-23 17:01:00,79.0,41.0,29.80,South,171,1.0,5.0,26,0.00,,,0.00,,2013-04-24 00:01:00,
2013-04-23 17:21:00,79.0,42.0,29.81,South,176,2.0,5.0,27,0.00,,,0.00,,2013-04-24 00:21:00,
2013-04-23 17:32:00,78.0,41.0,29.82,SSE,167,1.0,4.0,27,0.00,,,0.00,,2013-04-24 00:32:00,
2013-04-23 17:41:00,78.0,41.0,29.82,SSE,167,1.0,4.0,27,0.00,,,0.00,,2013-04-24 00:41:00,
2013-04-23 17:51:00,78.0,41.0,29.82,SSE,167,1.0,4.0,27,0.00,,,0.00,,2013-04-24 00:51:00,
2013-04-23 18:01:00,77.0,38.0,29.81,South,174,2.0,5.0,25,0.00,,,0.00,,2013-04-24 01:01:00,
2013-04-23 18:11:00,77.0,38.0,29.81,South,174,2.0,5.0,25,0.00,,,0.00,,2013-04-24 01:11:00,
2013-04-23 18:31:00,75.0,34.0,29.83,SSE,157,1.0,5.0,22,0.00,,,0.00,,2013-04-24 01:31:00,
2013-04-23 19:02:00,70.0,40.0,29.79,SE,140,0.0,6.0,34,0.00,,,0.00,,2013-04-24 02:02:00,
2013-04-23 19:12:00,70.0,40.0,29.79,SE,140,0.0,6.0,34,0.00,,,0.00,,2013-04-24 02:12:00,
2013-04-23 19:21:00,70.0,40.0,29.79,SE,140,0.0,6.0,34,0.00,,,0.00,,2013-04-24 02:21:00,
2013-04-23 19:34:00,63.0,43.0,29.82,SE,143,0.0,3.0,48,0.00,,,0.00,,2013-04-24 02:34:00,
2013-04-23 19:43:00,63.0,43.0,29.82,SE,143,0.0,3.0,48,0.00,,,0.00,,2013-04-24 02:43:00,
2013-04-23 19:52:00,61.0,42.0,29.80,SE,143,0.0,1.0,50,0.00,,,0.00,,2013-04-24 02:52:00,
2013-04-23 20:03:00,58.0,42.0,29.81,SE,143,0.0,1.0,56,0.00,,,0.00,,2013-04-24 03:03:00,
2013-04-23 20:11:00,58.0,42.0,29.81,SE,143,0.0,1.0,56,0.00,,,0.00,,2013-04-24 03:11:00,
2013-04-23 20:21:00,58.0,42.0,29.81,SE,143,0.0,1.0,56,0.00,,,0.00,,2013-04-24 03:21:00,
2013-04-23 20:33:00,54.0,41.0,29.82,SE,143,0.0,0.0,62,0.00,,,0.00,,2013-04-24 03:33:00,
2013-04-23 20:43:00,54.0,41.0,29.82,SE,143,0.0,0.0,62,0.00,,,0.00,,2013-04-24 03:43:00,
2013-04-23 20:53:00,53.0,42.0,29.81,SE,143,0.0,0.0,65,0.00,,,0.00,,2013-04-24 03:53:00,
2013-04-23 21:02:00,53.0,42.0,29.81,SE,143,0.0,0.0,65,0.00,,,0.00,,2013-04-24 04:02:00,
2013-04-23 21:12:00,53.0,42.0,29.81,SE,143,0.0,0.0,65,0.00,,,0.00,,2013-04-24 04:12:00,
2013-04-23 21:22:00,51.0,42.0,29.80,SE,143,0.0,1.0,70,0.00,,,0.00,,2013-04-24 04:22:00,
2013-04-23 21:33:00,50.0,42.0,29.83,South,171,0.0,2.0,73,0.00,,,0.00,,2013-04-24 04:33:00,
2013-04-23 21:43:00,50.0,42.0,29.83,South,171,0.0,2.0,73,0.00,,,0.00,,2013-04-24 04:43:00,
2013-04-23 21:52:00,49.0,41.0,29.84,SE,127,0.0,1.0,74,0.00,,,0.00,,2013-04-24 04:52:00,
2013-04-23 22:02:00,49.0,42.0,29.85,SE,127,0.0,1.0,76,0.00,,,0.00,,2013-04-24 05:02:00,
2013-04-23 22:12:00,49.0,42.0,29.85,SE,127,0.0,1.0,76,0.00,,,0.00,,2013-04-24 05:12:00,
2013-04-23 22:21:00,49.0,42.0,29.84,SE,127,0.0,1.0,77,0.00,,,0.00,,2013-04-24 05:21:00,
2013-04-23 22:32:00,48.0,41.0,29.87,SE,127,0.0,2.0,78,0.00,,,0.00,,2013-04-24 05:32:00,
2013-04-23 22:42:00,48.0,41.0,29.87,SE,127,0.0,2.0,78,0.00,,,0.00,,2013-04-24 05:42:00,
2013-04-23 22:51:00,48.0,42.0,29.85,SE,127,0.0,1.0,80,0.00,,,0.00,,2013-04-24 05:51:00,
2013-04-23 23:02:00,47.0,41.0,29.83,SE,127,0.0,0.0,80,0.00,,,0.00,,2013-04-24 06:02:00,
2013-04-23 23:11:00,47.0,41.0,29.83,SE,127,0.0,0.0,80,0.00,,,0.00,,2013-04-24 06:11:00,
2013-04-23 23:20:00,47.0,42.0,29.88,SE,127,0.0,0.0,82,0.00,,,0.00,,2013-04-24 06:20:00,
2013-04-23 23:21:00,47.0,41.0,29.83,SE,127,0.0,0.0,81,0.00,,,0.00,,2013-04-24 06:21:00,
2013-04-23 23:32:00,47.0,42.0,29.88,SE,127,0.0,0.0,82,0.00,,,0.00,,2013-04-24 06:32:00,
2013-04-23 23:41:00,47.0,42.0,29.88,SE,127,0.0,0.0,82,0.00,,,0.00,,2013-04-24 06:41:00,
2013-04-23 23:51:00,47.0,42.0,29.88,SE,127,0.0,0.0,82,0.00,,,0.00,,2013-04-24 06:51:00,